LEPP Airport Information

Runway Information
Runway 15 Length 0 ft width 0 ft
Elevation 1468 ft Threshold 0 ft Heading 0
Runway 33 Length 0 ft Width 0 ft
Elevation 1500 ft Threshold 0 ft Heading 0
Runway 16 Length 7241 ft width 148 ft
Elevation 1468 ft Threshold 0 ft Heading 152
Runway 34 Length 7241 ft Width 148 ft
Elevation 1504 ft Threshold 984 ft Heading 332
Airport Frequencies
Type APP Name APP Frequency 118.2 MHZ
Type GND Name GND Frequency 121.7 MHZ
Type TWR Name TWR Frequency 118.2 MHZ
Airport Navaids
Type NDB Name Pamplona Frequency 422 KHZ
Type VOR-DME Name Pamplona Frequency 113550 KHZ
Type VOR-DME Name Pamplona Frequency 112300 KHZ
Airport Weather Information & NOTAM
ADDS - METARS form results

(1650 UTC 04 December 2021)
Data provider http://aviationweather.gov/metar/data/
 
METAR text: LEPP 041630Z 34013KT 320V020 9000 -RA FEW020 SCT028 BKN034 07/06 Q1019 RERA
Conditions at: LEPP (PAMPLONA/NOAIN , ES) observed 1630 UTC 04 December 2021
Temperature: 7.0°C (45°F)
Dewpoint: 6.0°C (43°F) [RH = 93%]
Pressure (altimeter): 30.09 inches Hg (1019.0 mb)
Winds: from the NNW (340 degrees) at 15 MPH (13 knots; 6.7 m/s)
Visibility: 6 miles ( 9 km)
Ceiling: 3400 feet AGL
Clouds: few clouds at 2000 feet AGL
scattered clouds at 2800 feet AGL
broken clouds at 3400 feet AGL
Weather: -RA  (light rain)

METAR text: LEPP 041610Z 34013KT 9000 RA FEW020 SCT030 BKN035 08/06 Q1019
Conditions at: LEPP (PAMPLONA/NOAIN , ES) observed 1610 UTC 04 December 2021
Temperature: 8.0°C (46°F)
Dewpoint: 6.0°C (43°F) [RH = 87%]
Pressure (altimeter): 30.09 inches Hg (1019.0 mb)
Winds: from the NNW (340 degrees) at 15 MPH (13 knots; 6.7 m/s)
Visibility: 6 miles ( 9 km)
Ceiling: 3500 feet AGL
Clouds: few clouds at 2000 feet AGL
scattered clouds at 3000 feet AGL
broken clouds at 3500 feet AGL
Weather: RA  (moderate rain)

METAR text: LEPP 041600Z 33011KT 9999 -RA FEW020 SCT030 BKN035 08/06 Q1018
Conditions at: LEPP (PAMPLONA/NOAIN , ES) observed 1600 UTC 04 December 2021
Temperature: 8.0°C (46°F)
Dewpoint: 6.0°C (43°F) [RH = 87%]
Pressure (altimeter): 30.06 inches Hg (1018.0 mb)
Winds: from the NNW (330 degrees) at 13 MPH (11 knots; 5.7 m/s)
Visibility: 6 or more miles (10+ km)
Ceiling: 3500 feet AGL
Clouds: few clouds at 2000 feet AGL
scattered clouds at 3000 feet AGL
broken clouds at 3500 feet AGL
Weather: -RA  (light rain)

Forecast for: COR
Text: TAF COR LEPP 041457Z 0415/0515 31009KT 9999 SCT030 BKN045 TX10/0415Z TN02/0505Z
Forecast period: 1500 UTC 04 December 2021 to 1500 UTC 05 December 2021
Forecast type: FROM: standard forecast or significant change
Winds: from the NW (310 degrees) at 10 MPH (9 knots; 4.6 m/s)
Visibility: 6 or more miles (10+ km)
Ceiling: 4500 feet AGL
Clouds: scattered clouds at 3000 feet AGL
broken clouds at 4500 feet AGL
Weather: no significant weather forecast for this period
Text: TEMPO 0506/0515 32015G25KT
Forecast period: 0600 to 1500 UTC 05 December 2021
Forecast type: TEMPORARY: The following changes expected for less than half the time period
Winds: from the NW (320 degrees) at 17 MPH (15 knots; 7.7 m/s)
gusting to 29 MPH (25 knots; 12.9 m/s)
Visibility: missing
Ceiling: unknown
Clouds: missing
Weather: no significant weather forecast for this period
Text: PROB40
Forecast period: 1500 to 2100 UTC 04 December 2021
Forecast type: TEMPORARY: The following changes expected for less than half the time period
Visibility: missing
Ceiling: unknown
Clouds: missing
Weather: RA  (moderate rain)
Text: TEMPO 0415/0421 RA
Forecast period: 2100 UTC 04 December 2021 to 1500 UTC 05 December 2021
Forecast type: TEMPORARY: The following changes expected for less than half the time period
Visibility: 1.86 miles (2.99 km)
Ceiling: 1000 feet AGL
Clouds: broken clouds at 1000 feet AGL
scattered clouds at 3000 feet AGL
Weather: RA SHRA  (moderate rain, rain showers)